Time;durP1;ratioP1;P1;durP2;ratioP2;P2;SDS_P1;SDS_P2;PMS_P1;PMS_P2;Temp;Humidity;BMP_temperature;BMP_pressure;BME280_temperature;BME280_humidity;BME280_pressure;Samples;Min_cycle;Max_cycle;Signal;HPM_P1;HPM_P2
2024/02/28 00:01:26;;;;;;;93.37;38.57;;;2.80;99.90;;;;;;5072420;28;20384;-74
2024/02/28 00:03:51;;;;;;;101.55;39.63;;;2.70;99.90;;;;;;5071850;28;20715;-76
2024/02/28 00:06:17;;;;;;;94.90;40.20;;;2.60;99.90;;;;;;5053864;28;20463;-75
2024/02/28 00:08:43;;;;;;;89.70;37.73;;;2.50;99.90;;;;;;5072190;28;20439;-76
2024/02/28 00:11:08;;;;;;;99.37;39.37;;;2.50;99.90;;;;;;5072160;28;20736;-75
2024/02/28 00:13:34;;;;;;;97.23;38.53;;;2.80;99.90;;;;;;5072618;28;20762;-75
2024/02/28 00:15:59;;;;;;;94.40;38.53;;;2.90;99.90;;;;;;5072503;28;20388;-77
2024/02/28 00:18:25;;;;;;;85.20;37.23;;;2.90;99.90;;;;;;5072573;28;20742;-75
2024/02/28 00:20:50;;;;;;;91.33;39.43;;;2.70;99.90;;;;;;5072935;28;20437;-75
2024/02/28 00:23:16;;;;;;;88.30;38.03;;;2.60;99.90;;;;;;5072862;28;20382;-75
2024/02/28 00:25:41;;;;;;;96.93;38.25;;;2.50;99.90;;;;;;5054211;28;20410;-75
2024/02/28 00:28:07;;;;;;;97.13;38.90;;;2.40;99.90;;;;;;5072965;28;20758;-77
2024/02/28 00:30:33;;;;;;;93.13;38.75;;;2.50;99.90;;;;;;5071958;28;20724;-75
2024/02/28 00:32:59;;;;;;;97.70;38.05;;;2.50;99.90;;;;;;5076218;28;20798;-76
2024/02/28 00:35:25;;;;;;;100.93;36.80;;;2.50;99.90;;;;;;5077435;28;20407;-75
2024/02/28 00:37:50;;;;;;;89.87;37.50;;;2.50;99.90;;;;;;5076061;28;20414;-77
2024/02/28 00:40:16;;;;;;;90.50;38.60;;;2.50;99.90;;;;;;5078019;28;20498;-77
2024/02/28 00:42:41;;;;;;;87.57;35.33;;;2.50;99.90;;;;;;5076588;28;20513;-76
2024/02/28 00:45:09;;;;;;;87.90;36.30;;;2.50;99.90;;;;;;5076128;28;20527;-75
2024/02/28 00:47:35;;;;;;;87.75;35.25;;;2.40;99.90;;;;;;5075361;28;20379;-76
2024/02/28 00:50:02;;;;;;;83.90;34.17;;;2.30;99.90;;;;;;5076985;28;20464;-76
2024/02/28 00:52:29;;;;;;;82.80;33.00;;;2.30;99.90;;;;;;5089011;28;20391;-75
2024/02/28 00:54:54;;;;;;;89.50;36.50;;;2.30;99.90;;;;;;5093840;28;20393;-75
2024/02/28 00:57:20;;;;;;;79.47;35.23;;;2.50;99.90;;;;;;5091725;28;20379;-76
2024/02/28 00:59:45;;;;;;;82.55;34.13;;;2.50;99.90;;;;;;5081030;28;20411;-76
2024/02/28 01:02:11;;;;;;;86.15;34.63;;;2.40;99.90;;;;;;5075435;28;20391;-76
2024/02/28 01:04:36;;;;;;;83.57;34.28;;;2.30;99.90;;;;;;5075813;28;20686;-74
2024/02/28 01:07:03;;;;;;;78.38;32.72;;;2.10;99.90;;;;;;5075547;28;20419;-76
2024/02/28 01:09:28;;;;;;;83.53;33.85;;;2.00;99.90;;;;;;5075370;28;20393;-76
2024/02/28 01:11:54;;;;;;;81.90;33.13;;;1.90;99.90;;;;;;5075653;28;20387;-74
2024/02/28 01:14:20;;;;;;;89.93;34.60;;;1.80;99.90;;;;;;5076112;28;20461;-75
2024/02/28 01:16:45;;;;;;;85.80;34.23;;;1.80;99.90;;;;;;5079310;28;20514;-75
2024/02/28 01:19:11;;;;;;;85.33;33.73;;;1.70;99.90;;;;;;5075995;28;20399;-77
2024/02/28 01:21:36;;;;;;;92.10;34.60;;;1.70;99.90;;;;;;5056517;28;20384;-75
2024/02/28 01:24:02;;;;;;;95.90;35.27;;;1.70;99.90;;;;;;5074571;28;20412;-74
2024/02/28 01:26:28;;;;;;;90.28;35.42;;;1.80;99.90;;;;;;5074724;28;21008;-76
2024/02/28 01:28:53;;;;;;;96.85;39.28;;;1.90;99.90;;;;;;5075398;28;20387;-75
2024/02/28 01:31:19;;;;;;;97.50;36.57;;;2.10;99.90;;;;;;5075157;28;20398;-76
2024/02/28 01:33:44;;;;;;;91.57;36.60;;;2.20;99.90;;;;;;5074962;28;20485;-75
2024/02/28 01:36:11;;;;;;;93.77;34.00;;;2.40;99.90;;;;;;5080017;28;20395;-74
2024/02/28 01:38:37;;;;;;;84.82;33.65;;;2.60;99.90;;;;;;5085289;28;20402;-74
2024/02/28 01:41:24;;;;;;;80.90;32.53;;;2.60;99.90;;;;;;5091412;28;20391;-76
2024/02/28 01:43:50;;;;;;;81.70;33.65;;;2.60;99.90;;;;;;5085402;28;20410;-75
2024/02/28 01:46:25;;;;;;;88.77;34.87;;;2.70;99.90;;;;;;5082768;28;20387;-76
2024/02/28 01:48:51;;;;;;;87.43;33.30;;;2.70;99.90;;;;;;5085712;28;20425;-76
2024/02/28 01:51:17;;;;;;;83.68;34.85;;;2.70;99.90;;;;;;5087526;28;20396;-75
2024/02/28 01:53:44;;;;;;;85.60;34.08;;;2.70;99.90;;;;;;5090464;28;20390;-75
2024/02/28 01:56:12;;;;;;;75.03;32.50;;;2.60;99.90;;;;;;5088975;28;20383;-75
2024/02/28 01:58:37;;;;;;;85.25;34.30;;;2.70;99.90;;;;;;5082673;28;20811;-75
2024/02/28 02:01:03;;;;;;;83.00;32.67;;;2.80;99.90;;;;;;5078945;28;20375;-75
2024/02/28 02:03:28;;;;;;;79.43;32.15;;;2.90;99.90;;;;;;5084084;28;20410;-74
2024/02/28 02:05:54;;;;;;;89.03;35.05;;;2.90;99.90;;;;;;5079000;28;20387;-74
2024/02/28 02:08:20;;;;;;;89.38;35.47;;;2.90;99.90;;;;;;5077418;28;20376;-74
2024/02/28 02:10:46;;;;;;;90.13;34.08;;;2.90;99.90;;;;;;5074795;28;20812;-75
2024/02/28 02:13:12;;;;;;;99.43;36.40;;;2.90;99.90;;;;;;5058203;28;20439;-75
2024/02/28 02:15:38;;;;;;;88.95;35.10;;;2.90;99.90;;;;;;5077140;28;20445;-75
2024/02/28 02:18:04;;;;;;;94.10;36.63;;;3.00;99.90;;;;;;5076336;28;20395;-75
2024/02/28 02:20:33;;;;;;;91.55;36.15;;;3.10;99.90;;;;;;5081868;28;20416;-75
2024/02/28 02:22:59;;;;;;;91.90;36.47;;;3.10;99.90;;;;;;5080880;28;20766;-75
2024/02/28 02:25:25;;;;;;;97.37;35.00;;;3.20;99.90;;;;;;5074374;28;20906;-73
2024/02/28 02:27:50;;;;;;;95.25;35.50;;;3.30;99.90;;;;;;5083082;28;20422;-75
2024/02/28 02:30:16;;;;;;;98.70;35.60;;;3.40;99.90;;;;;;5075392;28;20388;-75
2024/02/28 02:32:42;;;;;;;93.45;37.30;;;3.50;99.90;;;;;;5079173;28;20398;-75
2024/02/28 02:35:07;;;;;;;99.00;37.58;;;3.50;99.90;;;;;;5072692;28;20394;-75
2024/02/28 02:37:33;;;;;;;101.20;38.75;;;3.60;99.90;;;;;;5072511;28;20384;-76
2024/02/28 02:39:59;;;;;;;96.27;37.50;;;3.60;99.90;;;;;;5074103;28;20499;-76
2024/02/28 02:42:25;;;;;;;97.47;37.97;;;3.50;99.90;;;;;;5074040;28;20731;-75
2024/02/28 02:44:50;;;;;;;104.72;38.35;;;3.50;99.90;;;;;;5073581;28;20372;-77
2024/02/28 02:47:16;;;;;;;110.47;40.05;;;3.50;99.80;;;;;;5072685;28;20855;-77
2024/02/28 02:49:41;;;;;;;107.78;39.22;;;3.50;99.90;;;;;;5072193;28;20383;-77
2024/02/28 02:52:07;;;;;;;104.88;40.10;;;3.50;99.90;;;;;;5072400;28;20407;-76
2024/02/28 02:54:32;;;;;;;108.47;41.10;;;3.50;99.90;;;;;;5072195;28;20920;-77
2024/02/28 02:56:58;;;;;;;109.07;41.05;;;3.60;99.90;;;;;;5072054;28;20380;-76
2024/02/28 02:59:23;;;;;;;111.53;41.20;;;3.60;99.90;;;;;;5072191;28;20411;-75
2024/02/28 03:01:50;;;;;;;111.47;41.53;;;3.70;99.90;;;;;;5072129;28;20386;-76
2024/02/28 03:04:15;;;;;;;111.20;41.17;;;3.80;99.90;;;;;;5071978;28;20372;-74
2024/02/28 03:06:41;;;;;;;109.88;40.65;;;3.80;99.90;;;;;;5071632;28;20387;-76
2024/02/28 03:09:07;;;;;;;102.60;40.10;;;3.90;99.90;;;;;;5072029;28;20874;-75
2024/02/28 03:11:34;;;;;;;93.28;38.20;;;3.90;99.90;;;;;;5072731;28;20392;-75
2024/02/28 03:14:00;;;;;;;98.28;38.03;;;4.00;99.60;;;;;;5071579;28;20391;-76
2024/02/28 03:16:26;;;;;;;91.57;37.00;;;4.00;98.80;;;;;;5072093;28;20409;-76
2024/02/28 03:18:52;;;;;;;93.25;37.50;;;3.90;98.70;;;;;;5072128;28;20951;-76
2024/02/28 03:21:17;;;;;;;90.88;37.13;;;3.90;98.90;;;;;;5079635;28;20380;-75
2024/02/28 03:23:43;;;;;;;99.00;38.10;;;3.90;99.20;;;;;;5092923;28;20439;-75
2024/02/28 03:26:08;;;;;;;94.00;37.65;;;4.00;96.90;;;;;;5091343;28;20430;-77
2024/02/28 03:28:37;;;;;;;94.78;37.45;;;4.00;96.70;;;;;;5071849;28;20915;-76
2024/02/28 03:31:02;;;;;;;89.82;34.97;;;4.00;97.10;;;;;;5071758;28;20426;-77
2024/02/28 03:33:29;;;;;;;101.38;38.10;;;4.00;97.60;;;;;;5071409;28;20403;-76
2024/02/28 03:35:54;;;;;;;92.88;35.90;;;4.00;98.00;;;;;;5071161;28;20372;-76
2024/02/28 03:38:20;;;;;;;89.80;36.55;;;4.00;97.50;;;;;;5071496;28;20376;-76
2024/02/28 03:40:45;;;;;;;86.38;34.63;;;4.10;96.10;;;;;;5071299;28;20480;-75
2024/02/28 03:43:12;;;;;;;91.38;35.10;;;4.10;95.90;;;;;;5070995;28;20761;-75
2024/02/28 03:45:39;;;;;;;91.03;35.95;;;4.10;96.80;;;;;;5070881;28;20377;-74
2024/02/28 03:48:05;;;;;;;93.53;37.25;;;4.10;97.10;;;;;;5071090;28;20739;-75
2024/02/28 03:50:30;;;;;;;88.45;35.17;;;4.20;97.70;;;;;;5070921;28;20420;-75
2024/02/28 03:52:56;;;;;;;87.53;36.17;;;4.30;97.20;;;;;;5070784;28;20414;-76
2024/02/28 03:55:21;;;;;;;89.13;37.00;;;4.30;96.30;;;;;;5070954;28;20410;-75
2024/02/28 03:57:48;;;;;;;92.47;35.10;;;4.30;96.30;;;;;;5070669;28;20399;-75
2024/02/28 04:00:14;;;;;;;93.97;37.40;;;4.30;96.10;;;;;;5071044;28;20408;-76
2024/02/28 04:02:39;;;;;;;92.10;36.70;;;4.30;96.70;;;;;;5070979;28;20380;-75
2024/02/28 04:05:05;;;;;;;101.00;39.40;;;6.00;97.10;;;;;;5071168;28;20384;-75
2024/02/28 04:07:31;;;;;;;94.75;38.47;;;4.40;96.50;;;;;;5070584;28;20452;-75
2024/02/28 04:09:56;;;;;;;96.63;39.63;;;4.40;96.60;;;;;;5071293;28;20412;-75
2024/02/28 04:12:22;;;;;;;99.10;38.73;;;4.50;96.40;;;;;;5071110;28;20388;-76
2024/02/28 04:14:47;;;;;;;100.00;40.50;;;4.50;95.60;;;;;;5070933;28;20400;-76
2024/02/28 04:17:13;;;;;;;96.70;40.57;;;4.50;95.40;;;;;;5052800;28;20387;-74
2024/02/28 04:19:39;;;;;;;95.17;38.33;;;4.60;94.80;;;;;;5070951;28;20472;-76
2024/02/28 04:22:05;;;;;;;128.45;46.95;;;4.60;94.70;;;;;;5070980;28;20384;-74
2024/02/28 04:24:30;;;;;;;139.65;53.65;;;4.80;93.40;;;;;;5070945;28;20376;-76
2024/02/28 04:26:58;;;;;;;163.88;56.65;;;4.80;92.00;;;;;;5071118;28;20437;-76
2024/02/28 04:29:23;;;;;;;165.55;56.83;;;4.90;92.10;;;;;;5071039;28;20767;-76
2024/02/28 04:31:49;;;;;;;170.38;57.97;;;4.90;91.30;;;;;;5071149;28;20388;-76
2024/02/28 04:34:14;;;;;;;149.13;55.30;;;4.90;91.50;;;;;;5072810;28;20399;-76
2024/02/28 04:36:40;;;;;;;151.35;54.40;;;4.90;91.90;;;;;;5083583;28;20505;-75
2024/02/28 04:39:07;;;;;;;145.82;55.30;;;4.90;91.80;;;;;;5081498;28;20483;-74
2024/02/28 04:41:33;;;;;;;147.10;54.22;;;4.90;91.00;;;;;;5083646;28;20424;-75
2024/02/28 04:43:59;;;;;;;141.13;52.60;;;5.00;90.70;;;;;;5080068;28;20383;-76
2024/02/28 04:46:25;;;;;;;145.25;54.97;;;5.00;89.40;;;;;;5078423;28;20487;-76
2024/02/28 04:48:50;;;;;;;154.07;53.77;;;5.00;89.40;;;;;;5075219;28;20750;-75
2024/02/28 04:51:19;;;;;;;158.90;56.10;;;5.00;90.00;;;;;;5074008;28;20392;-76
2024/02/28 04:53:45;;;;;;;167.40;59.75;;;4.90;90.60;;;;;;5071052;28;20407;-77
2024/02/28 04:56:10;;;;;;;169.80;58.10;;;4.90;92.30;;;;;;5070832;28;20388;-77
2024/02/28 04:58:39;;;;;;;177.53;63.00;;;5.00;93.80;;;;;;5070928;28;20384;-77
2024/02/28 05:01:04;;;;;;;174.30;59.77;;;4.90;93.50;;;;;;5070763;28;20384;-76
2024/02/28 05:03:30;;;;;;;170.83;61.30;;;5.00;93.10;;;;;;5070727;28;20452;-77
2024/02/28 05:05:56;;;;;;;163.97;59.60;;;4.90;93.30;;;;;;5071217;28;20789;-77
2024/02/28 05:08:21;;;;;;;165.20;59.30;;;5.00;93.10;;;;;;5071055;28;20376;-76
2024/02/28 05:10:47;;;;;;;169.87;59.10;;;5.00;92.70;;;;;;5070375;28;20389;-76
2024/02/28 05:13:13;;;;;;;160.73;57.67;;;4.90;93.20;;;;;;5070287;28;20400;-75
2024/02/28 05:15:38;;;;;;;168.85;58.50;;;4.90;93.80;;;;;;5070686;28;20383;-77
2024/02/28 05:18:04;;;;;;;170.55;58.30;;;4.90;93.30;;;;;;5070943;28;20391;-75
2024/02/28 05:20:30;;;;;;;156.60;55.67;;;4.90;93.30;;;;;;5074338;28;20490;-75
2024/02/28 05:22:55;;;;;;;146.87;53.57;;;5.00;91.70;;;;;;5074146;28;20470;-76
2024/02/28 05:25:21;;;;;;;141.50;50.17;;;4.90;90.80;;;;;;5073953;28;20404;-76
2024/02/28 05:27:46;;;;;;;136.70;49.67;;;4.90;91.20;;;;;;5073766;28;20380;-75
2024/02/28 05:30:12;;;;;;;136.37;49.50;;;4.90;90.10;;;;;;5056102;28;20959;-74
2024/02/28 05:32:37;;;;;;;118.37;44.40;;;4.90;88.30;;;;;;5073903;28;20402;-76
2024/02/28 05:35:03;;;;;;;121.10;43.50;;;4.70;87.90;;;;;;5074400;28;20390;-76
2024/02/28 05:37:29;;;;;;;124.65;45.85;;;4.70;88.30;;;;;;5073320;28;20410;-75
2024/02/28 05:39:54;;;;;;;134.23;47.47;;;4.60;89.70;;;;;;5075776;28;20419;-76
2024/02/28 05:42:23;;;;;;;132.83;47.77;;;4.60;90.90;;;;;;5086918;28;20754;-75
2024/02/28 05:44:50;;;;;;;134.88;48.85;;;4.60;91.80;;;;;;5089190;28;20408;-77
2024/02/28 05:47:16;;;;;;;144.23;49.72;;;4.50;91.80;;;;;;5075082;28;20485;-75
2024/02/28 05:49:41;;;;;;;149.52;49.63;;;4.60;92.50;;;;;;5075599;28;20391;-76
2024/02/28 05:52:07;;;;;;;161.23;52.47;;;4.60;92.10;;;;;;5075202;28;20403;-76
2024/02/28 05:54:34;;;;;;;149.10;52.30;;;4.60;92.60;;;;;;5074560;28;20862;-76
2024/02/28 05:57:00;;;;;;;149.65;51.55;;;4.60;92.60;;;;;;5082941;28;20475;-77
2024/02/28 05:59:26;;;;;;;162.70;55.08;;;4.60;92.20;;;;;;5082243;28;20407;-75
2024/02/28 06:01:51;;;;;;;149.60;53.33;;;4.60;92.80;;;;;;5086699;28;20744;-74
2024/02/28 06:04:17;;;;;;;155.45;52.83;;;4.70;91.20;;;;;;5088284;28;20390;-75
2024/02/28 06:06:43;;;;;;;153.25;52.95;;;4.80;91.10;;;;;;5073566;28;20392;-75
2024/02/28 06:09:08;;;;;;;165.23;55.13;;;4.80;90.00;;;;;;5079855;28;20472;-75
2024/02/28 06:11:34;;;;;;;157.38;53.03;;;4.80;90.30;;;;;;5083534;28;20467;-76
2024/02/28 06:13:59;;;;;;;158.57;55.42;;;4.70;90.50;;;;;;5084018;28;20439;-72
2024/02/28 06:16:25;;;;;;;155.48;54.05;;;4.80;90.30;;;;;;5084806;28;20466;-76
2024/02/28 06:18:50;;;;;;;155.07;54.53;;;4.80;90.30;;;;;;5089934;28;20396;-76
2024/02/28 06:21:16;;;;;;;161.00;55.83;;;4.80;88.30;;;;;;5075059;28;20870;-75
2024/02/28 06:23:41;;;;;;;157.48;56.30;;;4.80;88.20;;;;;;5094846;28;20389;-75
2024/02/28 06:26:14;;;;;;;152.90;54.10;;;4.80;88.20;;;;;;5095340;28;20457;-73
2024/02/28 06:28:42;;;;;;;151.93;53.55;;;4.80;88.40;;;;;;5087432;28;20405;-75
2024/02/28 06:31:13;;;;;;;155.82;54.50;;;4.80;87.50;;;;;;5076832;28;20429;-75
2024/02/28 06:33:38;;;;;;;148.10;52.90;;;4.80;87.70;;;;;;5064443;28;20799;-75
2024/02/28 06:36:04;;;;;;;140.13;51.20;;;4.90;86.60;;;;;;5075972;28;20445;-74
2024/02/28 06:38:29;;;;;;;149.27;51.88;;;4.90;85.80;;;;;;5074731;28;20380;-76
2024/02/28 06:40:55;;;;;;;137.90;48.85;;;5.00;84.40;;;;;;5073150;28;20419;-75
2024/02/28 06:43:20;;;;;;;137.50;49.03;;;5.10;82.90;;;;;;5074177;28;20384;-74
2024/02/28 06:45:46;;;;;;;133.07;48.83;;;5.10;82.30;;;;;;5073271;28;20792;-75
2024/02/28 06:48:12;;;;;;;128.70;49.20;;;5.20;82.00;;;;;;5073655;28;20387;-76
2024/02/28 06:50:37;;;;;;;131.68;48.75;;;5.10;80.20;;;;;;5075533;28;20383;-74
2024/02/28 06:53:03;;;;;;;127.47;47.63;;;5.00;81.40;;;;;;5075818;28;20749;-75
2024/02/28 06:55:29;;;;;;;128.32;46.65;;;5.00;82.20;;;;;;5077498;28;20384;-76
2024/02/28 06:57:56;;;;;;;130.20;47.63;;;5.10;81.20;;;;;;5077707;28;20393;-77
2024/02/28 07:00:22;;;;;;;133.05;48.20;;;5.10;81.80;;;;;;5076920;28;20988;-76
2024/02/28 07:02:47;;;;;;;141.03;49.97;;;5.20;81.40;;;;;;5074707;28;20434;-74
2024/02/28 07:05:13;;;;;;;133.87;47.50;;;5.20;81.20;;;;;;5056325;28;20723;-76
2024/02/28 07:07:39;;;;;;;120.80;45.03;;;5.30;79.50;;;;;;5072905;28;20392;-76
2024/02/28 07:10:05;;;;;;;118.43;43.43;;;5.20;78.40;;;;;;5074352;28;20384;-75
2024/02/28 07:12:31;;;;;;;119.78;44.78;;;5.20;78.30;;;;;;5072531;28;20742;-76
2024/02/28 07:14:56;;;;;;;119.18;43.78;;;5.20;78.10;;;;;;5072877;28;20380;-76
2024/02/28 07:17:22;;;;;;;123.50;44.00;;;5.10;79.30;;;;;;5072987;28;20388;-75
2024/02/28 07:19:48;;;;;;;130.30;45.73;;;5.00;79.60;;;;;;5073483;28;20403;-74
2024/02/28 07:22:13;;;;;;;130.93;46.63;;;5.00;80.40;;;;;;5073219;28;20410;-75
2024/02/28 07:24:39;;;;;;;138.52;45.75;;;4.90;80.80;;;;;;5074930;28;20824;-76
2024/02/28 07:27:05;;;;;;;132.95;46.58;;;4.90;81.40;;;;;;5072864;28;20441;-76
2024/02/28 07:29:30;;;;;;;132.40;45.35;;;5.00;80.50;;;;;;5073061;28;20384;-74
2024/02/28 07:31:56;;;;;;;132.05;44.55;;;5.10;78.60;;;;;;5077546;28;20433;-75
2024/02/28 07:34:22;;;;;;;133.35;45.00;;;5.10;78.60;;;;;;5079556;28;20391;-75
2024/02/28 07:36:47;;;;;;;136.57;44.60;;;5.20;78.30;;;;;;5091028;28;20445;-75
2024/02/28 07:39:13;;;;;;;130.83;44.73;;;5.10;78.60;;;;;;5092019;28;20396;-75
2024/02/28 07:41:40;;;;;;;119.60;42.40;;;5.20;77.10;;;;;;5092070;28;20411;-75
2024/02/28 07:44:07;;;;;;;126.60;43.50;;;5.20;75.00;;;;;;5076305;28;20388;-75
2024/02/28 07:46:32;;;;;;;122.35;42.75;;;5.20;75.60;;;;;;5076072;28;20386;-74
2024/02/28 07:48:58;;;;;;;125.05;43.13;;;5.20;76.40;;;;;;5074496;28;20391;-77
2024/02/28 07:51:23;;;;;;;124.93;42.13;;;5.20;76.70;;;;;;5073611;28;20387;-75
2024/02/28 07:53:49;;;;;;;126.40;45.30;;;5.20;77.10;;;;;;5072798;28;20416;-76
2024/02/28 07:56:18;;;;;;;132.53;43.23;;;5.40;75.10;;;;;;5072250;28;20387;-75
2024/02/28 07:58:45;;;;;;;116.53;42.58;;;5.40;74.60;;;;;;5053581;28;20860;-74
2024/02/28 08:01:12;;;;;;;120.38;43.33;;;5.50;71.50;;;;;;5053205;28;21572;-76
2024/02/28 08:03:38;;;;;;;126.30;45.05;;;5.50;71.50;;;;;;5071536;28;20414;-75
2024/02/28 08:06:04;;;;;;;126.50;42.55;;;5.50;71.20;;;;;;5071473;28;20386;-75
2024/02/28 08:08:29;;;;;;;119.55;43.30;;;5.40;70.90;;;;;;5074135;28;20383;-75
2024/02/28 08:10:55;;;;;;;124.87;42.60;;;5.40;72.80;;;;;;5072078;28;20463;-74
2024/02/28 08:13:21;;;;;;;122.07;43.90;;;5.40;72.90;;;;;;5055233;28;20396;-76
2024/02/28 08:15:46;;;;;;;113.10;42.03;;;5.40;72.80;;;;;;5071846;28;20380;-76
2024/02/28 08:18:12;;;;;;;128.50;41.93;;;5.40;72.50;;;;;;5072837;28;20396;-75
2024/02/28 08:20:38;;;;;;;128.10;44.50;;;5.50;73.00;;;;;;5072016;28;20486;-76
2024/02/28 08:23:05;;;;;;;114.30;42.58;;;5.60;72.30;;;;;;5072220;28;20863;-76
2024/02/28 08:25:30;;;;;;;116.25;41.78;;;5.60;71.30;;;;;;5070989;28;20379;-75
2024/02/28 08:27:56;;;;;;;127.47;42.80;;;5.80;68.60;;;;;;5071864;28;20443;-75
2024/02/28 08:30:22;;;;;;;125.73;44.87;;;5.80;68.20;;;;;;5071635;28;20457;-76
2024/02/28 08:32:47;;;;;;;114.43;41.77;;;5.70;69.30;;;;;;5071640;28;20387;-78
2024/02/28 08:35:13;;;;;;;126.30;44.90;;;5.70;69.60;;;;;;5072908;28;20415;-73
2024/02/28 08:37:39;;;;;;;124.70;43.07;;;5.80;69.80;;;;;;5072152;28;20400;-75
2024/02/28 08:40:06;;;;;;;121.30;43.20;;;5.90;68.50;;;;;;5071566;28;20498;-77
2024/02/28 08:42:32;;;;;;;131.88;44.72;;;5.90;69.50;;;;;;5055059;28;20471;-75
2024/02/28 08:45:00;;;;;;;127.63;44.37;;;5.90;70.60;;;;;;5075298;28;20410;-75
2024/02/28 08:47:26;;;;;;;126.43;42.95;;;6.00;70.40;;;;;;5072188;28;20379;-76
2024/02/28 08:49:55;;;;;;;126.53;43.35;;;6.10;68.10;;;;;;5073350;28;20519;-74
2024/02/28 08:52:21;;;;;;;123.47;42.90;;;6.10;66.00;;;;;;5076813;28;20478;-75
2024/02/28 08:54:48;;;;;;;123.55;42.90;;;6.10;66.30;;;;;;5079429;28;20392;-75
2024/02/28 08:57:14;;;;;;;123.80;44.33;;;6.10;66.80;;;;;;5061842;28;20383;-76
2024/02/28 08:59:40;;;;;;;125.28;45.03;;;6.10;66.60;;;;;;5082326;28;20431;-74
2024/02/28 09:02:07;;;;;;;117.43;44.58;;;6.10;66.50;;;;;;5080905;28;20919;-74
2024/02/28 09:04:33;;;;;;;126.68;44.75;;;6.20;65.30;;;;;;5077345;28;20390;-75
2024/02/28 09:06:59;;;;;;;118.68;43.40;;;6.20;64.80;;;;;;5077525;28;20383;-76
2024/02/28 09:09:24;;;;;;;128.20;45.20;;;6.20;64.40;;;;;;5076248;28;20471;-76
2024/02/28 09:11:50;;;;;;;127.07;45.00;;;6.30;65.10;;;;;;5077245;28;20410;-75
2024/02/28 09:14:15;;;;;;;128.17;42.27;;;6.40;63.20;;;;;;5058613;28;20396;-76
2024/02/28 09:16:41;;;;;;;124.10;42.90;;;6.50;61.70;;;;;;5077072;28;20391;-75
2024/02/28 09:19:06;;;;;;;110.83;40.00;;;6.50;60.70;;;;;;5077430;28;20416;-75
2024/02/28 09:21:32;;;;;;;107.87;39.77;;;6.60;59.40;;;;;;5077928;28;20388;-74
2024/02/28 09:23:58;;;;;;;109.47;41.27;;;6.80;59.40;;;;;;5075831;28;20773;-76
2024/02/28 09:26:23;;;;;;;110.77;42.00;;;7.00;57.60;;;;;;5077965;28;20376;-75
2024/02/28 09:28:49;;;;;;;109.35;41.80;;;7.00;57.10;;;;;;5075568;28;20387;-77
2024/02/28 09:31:17;;;;;;;110.60;40.28;;;7.10;55.60;;;;;;5078549;28;20376;-72
2024/02/28 09:33:43;;;;;;;106.78;40.78;;;7.30;54.80;;;;;;5075916;28;20440;-75
2024/02/28 09:36:08;;;;;;;119.17;42.30;;;7.50;53.80;;;;;;5074765;28;20376;-75
2024/02/28 09:38:34;;;;;;;107.17;41.67;;;7.60;53.00;;;;;;5075096;28;20379;-75
2024/02/28 09:41:03;;;;;;;105.25;41.05;;;7.70;52.10;;;;;;5074868;28;20790;-76
2024/02/28 09:43:31;;;;;;;105.20;40.77;;;7.70;51.50;;;;;;5075676;28;20449;-73
2024/02/28 09:46:03;;;;;;;106.60;42.30;;;7.80;50.20;;;;;;5075212;28;20831;-76
2024/02/28 09:48:29;;;;;;;98.25;40.10;;;8.00;49.70;;;;;;5075245;28;20385;-75
2024/02/28 09:50:56;;;;;;;100.65;38.85;;;8.00;48.80;;;;;;5074594;28;20434;-74
2024/02/28 09:53:22;;;;;;;96.38;38.95;;;8.10;48.10;;;;;;5073986;28;20458;-74
2024/02/28 09:55:49;;;;;;;103.87;40.73;;;8.10;47.50;;;;;;5073634;28;20857;-75
2024/02/28 09:58:15;;;;;;;96.07;38.85;;;8.10;48.00;;;;;;5073824;28;20753;-76
2024/02/28 10:00:43;;;;;;;111.35;44.30;;;8.10;48.50;;;;;;5074498;28;20762;-76
2024/02/28 10:03:11;;;;;;;100.28;41.47;;;8.20;48.00;;;;;;5074081;28;20384;-74
2024/02/28 10:05:38;;;;;;;112.60;43.85;;;8.30;47.10;;;;;;5072729;28;20454;-74
2024/02/28 10:08:05;;;;;;;101.05;39.47;;;8.30;46.70;;;;;;5074624;28;20863;-74
2024/02/28 10:10:30;;;;;;;95.22;39.67;;;8.40;47.20;;;;;;5074819;28;20427;-75
2024/02/28 10:12:58;;;;;;;95.65;39.90;;;8.50;45.20;;;;;;5077820;28;20395;-76
2024/02/28 10:15:26;;;;;;;113.32;43.40;;;8.40;45.20;;;;;;5076405;28;20427;-75
2024/02/28 10:17:51;;;;;;;109.80;44.25;;;8.50;46.00;;;;;;5057687;28;20384;-77
2024/02/28 10:20:17;;;;;;;108.10;43.40;;;8.40;46.50;;;;;;5076235;28;20929;-78
2024/02/28 10:22:43;;;;;;;105.00;42.55;;;8.30;47.00;;;;;;5056152;28;20405;-74
2024/02/28 10:25:08;;;;;;;99.25;40.90;;;8.20;46.60;;;;;;5077887;28;20384;-75
2024/02/28 10:27:35;;;;;;;102.53;40.78;;;8.30;46.60;;;;;;5080174;28;20383;-76
2024/02/28 10:30:05;;;;;;;97.18;41.78;;;8.30;47.00;;;;;;5080562;28;20777;-74
2024/02/28 10:32:33;;;;;;;92.40;40.70;;;8.40;46.60;;;;;;5074693;28;20375;-74
2024/02/28 10:35:00;;;;;;;98.10;40.95;;;8.50;45.70;;;;;;5075114;28;20467;-75
2024/02/28 10:37:28;;;;;;;93.43;40.53;;;8.80;45.60;;;;;;5076684;28;20395;-75
2024/02/28 10:39:56;;;;;;;90.22;40.75;;;8.90;45.30;;;;;;5058877;28;20473;-75
2024/02/28 10:42:23;;;;;;;79.63;34.58;;;9.00;44.00;;;;;;5075214;28;20453;-76
2024/02/28 10:44:52;;;;;;;89.15;40.00;;;9.00;42.40;;;;;;5075087;28;20877;-75
2024/02/28 10:47:17;;;;;;;79.20;36.38;;;9.20;42.20;;;;;;5075361;28;20384;-76
2024/02/28 10:49:44;;;;;;;73.07;35.10;;;9.30;40.60;;;;;;5075050;28;20739;-76
2024/02/28 10:52:13;;;;;;;75.60;34.67;;;9.40;40.60;;;;;;5074391;28;20372;-75
2024/02/28 10:54:43;;;;;;;72.70;33.85;;;9.40;39.70;;;;;;5078458;28;20906;-74
2024/02/28 10:57:12;;;;;;;75.00;33.70;;;9.40;39.80;;;;;;5077166;28;20383;-75
2024/02/28 10:59:39;;;;;;;80.65;36.08;;;9.60;38.90;;;;;;5074200;28;20407;-75
2024/02/28 11:02:05;;;;;;;70.10;33.13;;;9.50;38.90;;;;;;5074411;28;20391;-76
2024/02/28 11:04:31;;;;;;;70.40;32.65;;;9.60;38.20;;;;;;5074842;28;20376;-75
2024/02/28 11:06:57;;;;;;;71.27;34.23;;;9.50;38.60;;;;;;5077096;28;20379;-75
2024/02/28 11:09:30;;;;;;;69.93;33.47;;;9.50;38.70;;;;;;5080771;28;20387;-77
2024/02/28 11:11:56;;;;;;;76.67;35.50;;;9.40;38.70;;;;;;5074675;28;20403;-76
2024/02/28 11:14:24;;;;;;;83.95;35.47;;;9.40;39.00;;;;;;5073278;28;20402;-75
2024/02/28 11:17:00;;;;;;;91.33;36.30;;;9.40;39.30;;;;;;5073700;28;20465;-74
2024/02/28 11:19:29;;;;;;;80.82;34.70;;;9.40;39.40;;;;;;5074841;28;20399;-75
2024/02/28 11:21:55;;;;;;;75.32;35.17;;;9.40;38.50;;;;;;5073713;28;20392;-75
2024/02/28 11:24:33;;;;;;;76.03;34.25;;;9.40;38.80;;;;;;5056139;28;20415;-75
2024/02/28 11:26:58;;;;;;;75.40;33.50;;;9.40;38.50;;;;;;5073466;28;20387;-73
2024/02/28 11:29:28;;;;;;;83.00;35.63;;;9.40;38.50;;;;;;5074053;28;20388;-76
2024/02/28 11:31:54;;;;;;;85.95;36.38;;;9.30;39.00;;;;;;5075025;28;20395;-77
2024/02/28 11:34:21;;;;;;;79.63;35.00;;;9.50;39.30;;;;;;5074250;28;20395;-75
2024/02/28 11:36:50;;;;;;;84.13;36.55;;;9.70;38.40;;;;;;5056993;28;20758;-76
2024/02/28 11:39:17;;;;;;;85.53;37.47;;;9.70;38.70;;;;;;5075912;28;20475;-74
2024/02/28 11:41:46;;;;;;;76.60;35.30;;;9.80;38.60;;;;;;5075642;28;20404;-74
2024/02/28 11:44:13;;;;;;;80.68;36.58;;;9.70;37.60;;;;;;5061419;28;20376;-74
2024/02/28 11:46:42;;;;;;;82.00;37.42;;;9.70;38.10;;;;;;5080968;28;20384;-74
2024/02/28 11:49:07;;;;;;;77.18;35.50;;;9.90;38.20;;;;;;5074306;28;20399;-77
2024/02/28 11:51:33;;;;;;;78.23;34.33;;;10.00;38.10;;;;;;5054696;28;20878;-75
2024/02/28 11:54:01;;;;;;;75.70;33.47;;;10.00;36.70;;;;;;5072958;28;20480;-75
2024/02/28 11:56:27;;;;;;;79.80;34.17;;;10.00;36.60;;;;;;5072251;28;20732;-74
2024/02/28 11:58:53;;;;;;;73.43;33.13;;;10.00;37.00;;;;;;5072914;28;20395;-75
2024/02/28 12:01:32;;;;;;;72.50;32.90;;;10.00;36.60;;;;;;5072639;28;20384;-74
2024/02/28 12:03:57;;;;;;;76.85;33.67;;;10.10;36.30;;;;;;5072814;28;20440;-75
2024/02/28 12:06:23;;;;;;;76.53;34.70;;;10.10;36.60;;;;;;5055130;28;20384;-75
2024/02/28 12:08:50;;;;;;;70.63;32.08;;;10.20;36.50;;;;;;5071992;28;20409;-74
2024/02/28 12:11:15;;;;;;;76.63;32.63;;;10.30;35.50;;;;;;5071920;28;20414;-76
2024/02/28 12:13:41;;;;;;;80.10;34.75;;;10.50;35.60;;;;;;5071223;28;20408;-75
2024/02/28 12:16:08;;;;;;;80.07;35.27;;;10.70;35.70;;;;;;5072627;28;20866;-74
2024/02/28 12:18:34;;;;;;;63.95;29.48;;;10.90;34.70;;;;;;5072464;28;20459;-74
2024/02/28 12:21:00;;;;;;;65.72;29.45;;;11.10;32.80;;;;;;5072079;28;20418;-75
2024/02/28 12:23:26;;;;;;;57.83;27.20;;;11.20;32.30;;;;;;5071460;28;20375;-74
2024/02/28 12:25:51;;;;;;;63.40;29.60;;;11.10;31.70;;;;;;5072349;28;20384;-74